Parlin, Colorado
Current Conditions -  °F | °C
As of 7:55 AM on Sunday 23 Nov 2014 (Local Time) from KGUC Reporting Station
Scattered Clouds Scattered Clouds  
Wind Chill: 19°   Ceiling: Unl
Heat Index: 27°   Visibility: 10mi
Dew Point: 19°   Wind: 7mph
Humidity: 74%   Direction: 180°S
Pressure: 29.83"   Gusts: NA
Location:  38.5°N, 106.73°W
Report Text: KGUC 231455Z AUTO 18006KT 10SM SCT012 M03/M07 A2983 RMK AO1 52024
Loading
Personal Weather Stations






























Interactive Weather Map New forecast layout! Learn more

10-Day Weather Forecast

Advertisements
Track Severe Weather on mobile